Columbus, North Dakota
Current Conditions -  °F | °C
As of 4:00 PM on Thursday 23 Oct 2014 (Local Time) from CYEN Reporting Station
Overcast Overcast  
Wind Chill: 18°   Ceiling: 26000
Heat Index: 18°   Visibility: 15mi
Dew Point:   Wind: 16mph
Humidity: 34%   Direction: 220°SW
Pressure: 29.71"   Gusts: NA
Location:  48.9°N, 102.78°W
Report Text: CYEN 232100Z 22014KT 15SM FEW100 FEW120 OVC260 18/02 A2971 RMKAC1AS1CI0 SLP074
Loading
Personal Weather Stations






























Interactive Weather Map
Tropical Storm Tracking
New forecast layout! Learn more

10-Day Weather Forecast

Advertisements
Track Severe Weather on mobile